sensor_id;sensor_type;location;lat;lon;timestamp;temperature;humidity
21271;DHT22;10795;50.796;3.860;2023-11-19T00:01:38;13.70;99.90
21271;DHT22;10795;50.796;3.860;2023-11-19T00:04:06;13.60;99.90
21271;DHT22;10795;50.796;3.860;2023-11-19T00:06:31;13.70;99.90
21271;DHT22;10795;50.796;3.860;2023-11-19T00:08:57;13.70;99.90
21271;DHT22;10795;50.796;3.860;2023-11-19T00:11:23;13.70;99.90
21271;DHT22;10795;50.796;3.860;2023-11-19T00:13:49;13.70;99.90
21271;DHT22;10795;50.796;3.860;2023-11-19T00:16:15;13.70;99.90
21271;DHT22;10795;50.796;3.860;2023-11-19T00:18:41;13.70;99.90
21271;DHT22;10795;50.796;3.860;2023-11-19T00:23:43;13.60;99.90
21271;DHT22;10795;50.796;3.860;2023-11-19T00:28:57;13.70;99.90
21271;DHT22;10795;50.796;3.860;2023-11-19T00:31:24;13.70;99.90
21271;DHT22;10795;50.796;3.860;2023-11-19T00:33:51;13.70;99.90
21271;DHT22;10795;50.796;3.860;2023-11-19T00:36:17;13.70;99.90
21271;DHT22;10795;50.796;3.860;2023-11-19T00:38:43;13.70;99.90
21271;DHT22;10795;50.796;3.860;2023-11-19T00:41:08;13.70;99.90
21271;DHT22;10795;50.796;3.860;2023-11-19T00:43:34;13.80;99.90
21271;DHT22;10795;50.796;3.860;2023-11-19T00:46:02;13.80;99.90
21271;DHT22;10795;50.796;3.860;2023-11-19T00:48:31;13.80;99.90
21271;DHT22;10795;50.796;3.860;2023-11-19T00:50:57;13.80;99.90
21271;DHT22;10795;50.796;3.860;2023-11-19T00:53:25;13.80;99.90
21271;DHT22;10795;50.796;3.860;2023-11-19T00:55:51;13.80;99.90
21271;DHT22;10795;50.796;3.860;2023-11-19T00:58:17;13.80;99.90
21271;DHT22;10795;50.796;3.860;2023-11-19T01:00:43;13.80;99.90
21271;DHT22;10795;50.796;3.860;2023-11-19T01:03:10;13.80;99.90
21271;DHT22;10795;50.796;3.860;2023-11-19T01:05:37;13.70;99.90
21271;DHT22;10795;50.796;3.860;2023-11-19T01:08:02;13.70;99.90
21271;DHT22;10795;50.796;3.860;2023-11-19T01:10:30;13.80;99.90
21271;DHT22;10795;50.796;3.860;2023-11-19T01:12:55;13.80;99.90
21271;DHT22;10795;50.796;3.860;2023-11-19T01:15:23;13.70;99.90
21271;DHT22;10795;50.796;3.860;2023-11-19T01:17:49;13.80;99.90
21271;DHT22;10795;50.796;3.860;2023-11-19T01:20:15;13.80;99.90
21271;DHT22;10795;50.796;3.860;2023-11-19T01:22:40;13.70;99.90
21271;DHT22;10795;50.796;3.860;2023-11-19T01:25:06;13.70;99.90
21271;DHT22;10795;50.796;3.860;2023-11-19T01:27:32;13.70;99.90
21271;DHT22;10795;50.796;3.860;2023-11-19T01:30:06;13.70;99.90
21271;DHT22;10795;50.796;3.860;2023-11-19T01:32:35;13.70;99.90
21271;DHT22;10795;50.796;3.860;2023-11-19T01:35:02;13.60;99.90
21271;DHT22;10795;50.796;3.860;2023-11-19T01:37:28;13.60;99.90
21271;DHT22;10795;50.796;3.860;2023-11-19T01:39:54;13.60;99.90
21271;DHT22;10795;50.796;3.860;2023-11-19T01:42:20;13.60;99.90
21271;DHT22;10795;50.796;3.860;2023-11-19T01:44:58;13.60;99.90
21271;DHT22;10795;50.796;3.860;2023-11-19T01:47:25;13.60;99.90
21271;DHT22;10795;50.796;3.860;2023-11-19T01:49:51;13.50;99.90
21271;DHT22;10795;50.796;3.860;2023-11-19T01:52:17;13.50;99.90
21271;DHT22;10795;50.796;3.860;2023-11-19T01:54:43;13.50;99.90
21271;DHT22;10795;50.796;3.860;2023-11-19T01:57:11;13.50;99.90
21271;DHT22;10795;50.796;3.860;2023-11-19T01:59:38;13.50;99.90
21271;DHT22;10795;50.796;3.860;2023-11-19T02:02:04;13.50;99.90
21271;DHT22;10795;50.796;3.860;2023-11-19T02:04:31;13.50;99.90
21271;DHT22;10795;50.796;3.860;2023-11-19T02:06:57;13.50;99.90
21271;DHT22;10795;50.796;3.860;2023-11-19T02:09:31;13.40;99.90
21271;DHT22;10795;50.796;3.860;2023-11-19T02:12:02;13.40;99.90
21271;DHT22;10795;50.796;3.860;2023-11-19T02:14:28;13.30;99.90
21271;DHT22;10795;50.796;3.860;2023-11-19T02:16:56;13.30;99.90
21271;DHT22;10795;50.796;3.860;2023-11-19T02:19:22;13.30;99.90
21271;DHT22;10795;50.796;3.860;2023-11-19T02:21:48;13.30;99.90
21271;DHT22;10795;50.796;3.860;2023-11-19T02:24:14;13.30;99.90
21271;DHT22;10795;50.796;3.860;2023-11-19T02:26:46;13.40;99.90
21271;DHT22;10795;50.796;3.860;2023-11-19T02:29:13;13.30;99.90
21271;DHT22;10795;50.796;3.860;2023-11-19T02:31:39;13.30;99.90
21271;DHT22;10795;50.796;3.860;2023-11-19T02:34:04;13.30;99.90
21271;DHT22;10795;50.796;3.860;2023-11-19T02:36:36;13.40;99.90
21271;DHT22;10795;50.796;3.860;2023-11-19T02:39:01;13.20;99.90
21271;DHT22;10795;50.796;3.860;2023-11-19T02:41:27;13.30;99.90
21271;DHT22;10795;50.796;3.860;2023-11-19T02:43:53;13.30;99.90
21271;DHT22;10795;50.796;3.860;2023-11-19T02:46:21;13.30;99.90
21271;DHT22;10795;50.796;3.860;2023-11-19T02:48:49;13.30;99.90
21271;DHT22;10795;50.796;3.860;2023-11-19T02:51:15;13.20;99.90
21271;DHT22;10795;50.796;3.860;2023-11-19T02:53:41;13.20;99.90
21271;DHT22;10795;50.796;3.860;2023-11-19T02:56:07;13.10;99.90
21271;DHT22;10795;50.796;3.860;2023-11-19T02:58:45;13.20;99.90
21271;DHT22;10795;50.796;3.860;2023-11-19T03:01:12;13.10;99.90
21271;DHT22;10795;50.796;3.860;2023-11-19T03:03:49;13.10;99.90
21271;DHT22;10795;50.796;3.860;2023-11-19T03:06:20;13.00;99.90
21271;DHT22;10795;50.796;3.860;2023-11-19T03:08:49;13.00;99.90
21271;DHT22;10795;50.796;3.860;2023-11-19T03:11:15;13.00;99.90
21271;DHT22;10795;50.796;3.860;2023-11-19T03:13:41;12.90;99.90
21271;DHT22;10795;50.796;3.860;2023-11-19T03:16:09;12.90;99.90
21271;DHT22;10795;50.796;3.860;2023-11-19T03:18:39;13.00;99.90
21271;DHT22;10795;50.796;3.860;2023-11-19T03:21:08;12.90;99.90
21271;DHT22;10795;50.796;3.860;2023-11-19T03:23:34;12.90;99.90
21271;DHT22;10795;50.796;3.860;2023-11-19T03:26:00;12.90;99.90
21271;DHT22;10795;50.796;3.860;2023-11-19T03:28:29;12.80;99.90
21271;DHT22;10795;50.796;3.860;2023-11-19T03:30:56;12.90;99.90
21271;DHT22;10795;50.796;3.860;2023-11-19T03:33:22;12.90;99.90
21271;DHT22;10795;50.796;3.860;2023-11-19T03:35:47;12.90;99.90
21271;DHT22;10795;50.796;3.860;2023-11-19T03:38:13;12.80;99.90
21271;DHT22;10795;50.796;3.860;2023-11-19T03:40:40;12.80;99.90
21271;DHT22;10795;50.796;3.860;2023-11-19T03:43:06;12.90;99.90
21271;DHT22;10795;50.796;3.860;2023-11-19T03:45:32;12.90;99.90
21271;DHT22;10795;50.796;3.860;2023-11-19T03:47:57;12.80;99.90
21271;DHT22;10795;50.796;3.860;2023-11-19T03:50:23;12.90;99.90
21271;DHT22;10795;50.796;3.860;2023-11-19T03:52:49;12.90;99.90
21271;DHT22;10795;50.796;3.860;2023-11-19T03:55:15;12.70;99.90
21271;DHT22;10795;50.796;3.860;2023-11-19T03:57:40;12.70;99.90
21271;DHT22;10795;50.796;3.860;2023-11-19T04:00:06;12.70;99.90
21271;DHT22;10795;50.796;3.860;2023-11-19T04:02:38;12.70;99.90
21271;DHT22;10795;50.796;3.860;2023-11-19T04:05:04;12.70;99.90
21271;DHT22;10795;50.796;3.860;2023-11-19T04:07:30;12.70;99.90
21271;DHT22;10795;50.796;3.860;2023-11-19T04:09:57;12.80;99.90
21271;DHT22;10795;50.796;3.860;2023-11-19T04:12:24;12.80;99.90
21271;DHT22;10795;50.796;3.860;2023-11-19T04:14:49;12.70;99.90
21271;DHT22;10795;50.796;3.860;2023-11-19T04:17:17;12.70;99.90
21271;DHT22;10795;50.796;3.860;2023-11-19T04:19:43;12.70;99.90
21271;DHT22;10795;50.796;3.860;2023-11-19T04:22:09;12.70;99.90
21271;DHT22;10795;50.796;3.860;2023-11-19T04:27:10;12.80;99.90
21271;DHT22;10795;50.796;3.860;2023-11-19T04:29:38;12.80;99.90
21271;DHT22;10795;50.796;3.860;2023-11-19T04:34:53;12.80;99.90
21271;DHT22;10795;50.796;3.860;2023-11-19T04:37:19;12.80;99.90
21271;DHT22;10795;50.796;3.860;2023-11-19T04:47:58;12.60;99.90
21271;DHT22;10795;50.796;3.860;2023-11-19T04:50:24;12.60;99.90
21271;DHT22;10795;50.796;3.860;2023-11-19T04:52:52;12.70;99.90
21271;DHT22;10795;50.796;3.860;2023-11-19T04:55:19;12.70;99.90
21271;DHT22;10795;50.796;3.860;2023-11-19T04:57:45;12.60;99.90
21271;DHT22;10795;50.796;3.860;2023-11-19T05:00:10;12.60;99.90
21271;DHT22;10795;50.796;3.860;2023-11-19T05:02:36;12.60;99.90
21271;DHT22;10795;50.796;3.860;2023-11-19T05:05:03;12.70;99.90
21271;DHT22;10795;50.796;3.860;2023-11-19T05:07:30;12.70;99.90
21271;DHT22;10795;50.796;3.860;2023-11-19T05:09:56;12.80;99.90
21271;DHT22;10795;50.796;3.860;2023-11-19T05:12:21;12.70;99.90
21271;DHT22;10795;50.796;3.860;2023-11-19T05:14:48;12.60;99.90
21271;DHT22;10795;50.796;3.860;2023-11-19T05:17:17;12.60;99.90
21271;DHT22;10795;50.796;3.860;2023-11-19T05:19:43;12.70;99.90
21271;DHT22;10795;50.796;3.860;2023-11-19T05:22:09;12.60;99.90
21271;DHT22;10795;50.796;3.860;2023-11-19T05:24:35;12.60;99.90
21271;DHT22;10795;50.796;3.860;2023-11-19T05:27:01;12.50;99.90
21271;DHT22;10795;50.796;3.860;2023-11-19T05:44:52;12.50;99.90
21271;DHT22;10795;50.796;3.860;2023-11-19T05:47:18;12.40;99.90
21271;DHT22;10795;50.796;3.860;2023-11-19T05:49:44;12.40;99.90
21271;DHT22;10795;50.796;3.860;2023-11-19T05:52:09;12.30;99.90
21271;DHT22;10795;50.796;3.860;2023-11-19T05:54:36;12.20;99.90
21271;DHT22;10795;50.796;3.860;2023-11-19T05:57:04;12.30;99.90
21271;DHT22;10795;50.796;3.860;2023-11-19T05:59:30;12.30;99.90
21271;DHT22;10795;50.796;3.860;2023-11-19T07:06:42;11.80;99.90
21271;DHT22;10795;50.796;3.860;2023-11-19T07:09:12;11.90;99.90
21271;DHT22;10795;50.796;3.860;2023-11-19T07:11:44;11.90;99.90
21271;DHT22;10795;50.796;3.860;2023-11-19T07:14:12;11.90;99.90
21271;DHT22;10795;50.796;3.860;2023-11-19T07:16:46;11.90;99.90
21271;DHT22;10795;50.796;3.860;2023-11-19T07:19:49;11.80;99.90
21271;DHT22;10795;50.796;3.860;2023-11-19T07:22:25;11.90;99.90
21271;DHT22;10795;50.796;3.860;2023-11-19T07:25:03;12.00;99.90
21271;DHT22;10795;50.796;3.860;2023-11-19T07:27:33;12.10;99.90
21271;DHT22;10795;50.796;3.860;2023-11-19T07:30:20;12.10;99.90
21271;DHT22;10795;50.796;3.860;2023-11-19T07:32:47;12.00;99.90
21271;DHT22;10795;50.796;3.860;2023-11-19T07:35:23;11.90;99.90
21271;DHT22;10795;50.796;3.860;2023-11-19T07:37:56;11.80;99.90
21271;DHT22;10795;50.796;3.860;2023-11-19T07:40:22;11.80;99.90
21271;DHT22;10795;50.796;3.860;2023-11-19T07:42:48;11.90;99.90
21271;DHT22;10795;50.796;3.860;2023-11-19T07:45:14;11.90;99.90
21271;DHT22;10795;50.796;3.860;2023-11-19T07:50:36;12.00;99.90
21271;DHT22;10795;50.796;3.860;2023-11-19T07:53:05;12.00;99.90
21271;DHT22;10795;50.796;3.860;2023-11-19T07:55:33;12.00;99.90
21271;DHT22;10795;50.796;3.860;2023-11-19T07:57:59;11.90;99.90
21271;DHT22;10795;50.796;3.860;2023-11-19T08:08:53;12.10;99.90
21271;DHT22;10795;50.796;3.860;2023-11-19T08:11:19;12.20;99.90
21271;DHT22;10795;50.796;3.860;2023-11-19T08:13:45;12.00;99.90
21271;DHT22;10795;50.796;3.860;2023-11-19T08:16:11;12.00;99.90
21271;DHT22;10795;50.796;3.860;2023-11-19T08:18:36;12.10;99.90
21271;DHT22;10795;50.796;3.860;2023-11-19T08:21:02;12.10;99.90
21271;DHT22;10795;50.796;3.860;2023-11-19T08:23:30;12.20;99.90
21271;DHT22;10795;50.796;3.860;2023-11-19T08:25:56;12.20;99.90
21271;DHT22;10795;50.796;3.860;2023-11-19T08:28:21;12.30;99.90
21271;DHT22;10795;50.796;3.860;2023-11-19T08:33:37;12.30;99.90
21271;DHT22;10795;50.796;3.860;2023-11-19T08:36:09;12.50;99.90
21271;DHT22;10795;50.796;3.860;2023-11-19T08:38:53;12.40;99.90
21271;DHT22;10795;50.796;3.860;2023-11-19T08:42:31;12.40;99.90
21271;DHT22;10795;50.796;3.860;2023-11-19T08:45:47;12.50;99.90
21271;DHT22;10795;50.796;3.860;2023-11-19T09:27:47;13.20;99.90
21271;DHT22;10795;50.796;3.860;2023-11-19T09:30:15;13.30;99.90
21271;DHT22;10795;50.796;3.860;2023-11-19T09:35:30;13.60;99.90
21271;DHT22;10795;50.796;3.860;2023-11-19T09:37:56;13.50;99.90
21271;DHT22;10795;50.796;3.860;2023-11-19T09:40:22;13.50;99.90
21271;DHT22;10795;50.796;3.860;2023-11-19T09:42:47;13.60;99.90
21271;DHT22;10795;50.796;3.860;2023-11-19T09:45:16;13.80;99.90
21271;DHT22;10795;50.796;3.860;2023-11-19T09:47:43;13.90;99.90
21271;DHT22;10795;50.796;3.860;2023-11-19T09:50:10;13.70;99.90
21271;DHT22;10795;50.796;3.860;2023-11-19T09:52:36;13.80;99.90
21271;DHT22;10795;50.796;3.860;2023-11-19T09:55:02;13.80;99.90
21271;DHT22;10795;50.796;3.860;2023-11-19T09:57:27;13.70;99.90
21271;DHT22;10795;50.796;3.860;2023-11-19T09:59:57;13.60;99.90
21271;DHT22;10795;50.796;3.860;2023-11-19T10:02:23;13.60;99.90
21271;DHT22;10795;50.796;3.860;2023-11-19T10:04:50;13.80;99.90
21271;DHT22;10795;50.796;3.860;2023-11-19T10:07:16;14.10;99.90
21271;DHT22;10795;50.796;3.860;2023-11-19T10:09:42;14.10;99.90
21271;DHT22;10795;50.796;3.860;2023-11-19T10:12:09;14.20;99.90
21271;DHT22;10795;50.796;3.860;2023-11-19T10:14:34;14.10;99.90
21271;DHT22;10795;50.796;3.860;2023-11-19T10:17:02;14.20;99.90
21271;DHT22;10795;50.796;3.860;2023-11-19T10:19:29;14.30;99.90
21271;DHT22;10795;50.796;3.860;2023-11-19T10:21:57;14.30;99.90
21271;DHT22;10795;50.796;3.860;2023-11-19T10:24:33;14.30;99.90
21271;DHT22;10795;50.796;3.860;2023-11-19T10:27:02;14.40;99.90
21271;DHT22;10795;50.796;3.860;2023-11-19T10:29:30;14.30;99.90
21271;DHT22;10795;50.796;3.860;2023-11-19T10:31:56;14.30;99.90
21271;DHT22;10795;50.796;3.860;2023-11-19T10:34:26;14.20;99.90
21271;DHT22;10795;50.796;3.860;2023-11-19T10:36:52;14.30;99.90
21271;DHT22;10795;50.796;3.860;2023-11-19T10:39:18;14.30;99.90
21271;DHT22;10795;50.796;3.860;2023-11-19T10:41:43;14.40;99.90
21271;DHT22;10795;50.796;3.860;2023-11-19T10:44:09;14.20;99.90
21271;DHT22;10795;50.796;3.860;2023-11-19T10:46:36;13.90;99.90
21271;DHT22;10795;50.796;3.860;2023-11-19T10:49:03;13.80;99.90
21271;DHT22;10795;50.796;3.860;2023-11-19T10:51:32;13.60;99.90
21271;DHT22;10795;50.796;3.860;2023-11-19T10:54:00;13.50;99.90
21271;DHT22;10795;50.796;3.860;2023-11-19T10:56:33;13.40;99.90
21271;DHT22;10795;50.796;3.860;2023-11-19T10:58:59;13.40;99.90
21271;DHT22;10795;50.796;3.860;2023-11-19T11:01:26;13.40;99.90
21271;DHT22;10795;50.796;3.860;2023-11-19T11:03:55;13.50;99.90
21271;DHT22;10795;50.796;3.860;2023-11-19T11:06:22;13.50;99.90
21271;DHT22;10795;50.796;3.860;2023-11-19T11:08:48;13.60;99.90
21271;DHT22;10795;50.796;3.860;2023-11-19T11:11:15;13.60;99.90
21271;DHT22;10795;50.796;3.860;2023-11-19T11:13:43;13.70;99.90
21271;DHT22;10795;50.796;3.860;2023-11-19T11:16:09;13.70;99.90
21271;DHT22;10795;50.796;3.860;2023-11-19T11:18:36;14.00;99.90
21271;DHT22;10795;50.796;3.860;2023-11-19T11:21:03;14.00;99.90
21271;DHT22;10795;50.796;3.860;2023-11-19T11:26:13;14.40;99.90
21271;DHT22;10795;50.796;3.860;2023-11-19T11:29:05;14.60;99.90
21271;DHT22;10795;50.796;3.860;2023-11-19T11:36:24;14.80;99.90
21271;DHT22;10795;50.796;3.860;2023-11-19T11:38:50;14.70;99.90
21271;DHT22;10795;50.796;3.860;2023-11-19T11:41:19;14.80;99.90
21271;DHT22;10795;50.796;3.860;2023-11-19T11:43:46;14.80;99.90
21271;DHT22;10795;50.796;3.860;2023-11-19T11:46:53;14.70;99.90
21271;DHT22;10795;50.796;3.860;2023-11-19T11:49:06;14.30;99.90
21271;DHT22;10795;50.796;3.860;2023-11-19T11:54:10;13.90;99.90
21271;DHT22;10795;50.796;3.860;2023-11-19T11:56:39;14.10;99.90
21271;DHT22;10795;50.796;3.860;2023-11-19T11:59:20;13.80;99.90
21271;DHT22;10795;50.796;3.860;2023-11-19T12:01:58;13.70;99.90
21271;DHT22;10795;50.796;3.860;2023-11-19T12:04:27;13.70;99.90
21271;DHT22;10795;50.796;3.860;2023-11-19T12:07:06;13.60;99.90
21271;DHT22;10795;50.796;3.860;2023-11-19T12:09:32;13.50;99.90
21271;DHT22;10795;50.796;3.860;2023-11-19T12:17:46;13.60;99.90
21271;DHT22;10795;50.796;3.860;2023-11-19T12:20:14;13.50;99.90
21271;DHT22;10795;50.796;3.860;2023-11-19T12:22:42;13.40;99.90
21271;DHT22;10795;50.796;3.860;2023-11-19T12:25:09;13.50;99.90
21271;DHT22;10795;50.796;3.860;2023-11-19T12:27:36;13.30;99.90
21271;DHT22;10795;50.796;3.860;2023-11-19T12:30:03;13.50;99.90
21271;DHT22;10795;50.796;3.860;2023-11-19T12:32:48;13.40;99.90
21271;DHT22;10795;50.796;3.860;2023-11-19T12:35:14;13.40;99.90
21271;DHT22;10795;50.796;3.860;2023-11-19T12:37:41;13.60;99.90
21271;DHT22;10795;50.796;3.860;2023-11-19T12:42:45;13.50;99.90
21271;DHT22;10795;50.796;3.860;2023-11-19T12:45:10;13.60;99.90
21271;DHT22;10795;50.796;3.860;2023-11-19T12:47:39;13.60;99.90
21271;DHT22;10795;50.796;3.860;2023-11-19T12:50:08;13.70;99.90
21271;DHT22;10795;50.796;3.860;2023-11-19T12:52:36;13.80;99.90
21271;DHT22;10795;50.796;3.860;2023-11-19T12:55:05;13.70;99.90
21271;DHT22;10795;50.796;3.860;2023-11-19T12:57:37;13.70;99.90
21271;DHT22;10795;50.796;3.860;2023-11-19T13:00:17;13.60;99.90
21271;DHT22;10795;50.796;3.860;2023-11-19T13:02:50;13.60;99.90
21271;DHT22;10795;50.796;3.860;2023-11-19T13:05:35;13.50;99.90
21271;DHT22;10795;50.796;3.860;2023-11-19T13:08:07;13.50;99.90
21271;DHT22;10795;50.796;3.860;2023-11-19T13:10:49;13.40;99.90
21271;DHT22;10795;50.796;3.860;2023-11-19T13:13:16;13.60;99.90
21271;DHT22;10795;50.796;3.860;2023-11-19T13:15:44;13.80;99.90
21271;DHT22;10795;50.796;3.860;2023-11-19T13:18:10;13.80;99.90
21271;DHT22;10795;50.796;3.860;2023-11-19T13:20:36;13.80;99.90
21271;DHT22;10795;50.796;3.860;2023-11-19T13:23:02;13.80;99.90
21271;DHT22;10795;50.796;3.860;2023-11-19T13:31:06;13.70;99.90
21271;DHT22;10795;50.796;3.860;2023-11-19T13:33:33;13.90;99.90
21271;DHT22;10795;50.796;3.860;2023-11-19T13:42:05;13.90;99.90
21271;DHT22;10795;50.796;3.860;2023-11-19T13:44:31;13.90;99.90
21271;DHT22;10795;50.796;3.860;2023-11-19T13:46:57;13.80;99.90
21271;DHT22;10795;50.796;3.860;2023-11-19T13:49:22;13.80;99.90
21271;DHT22;10795;50.796;3.860;2023-11-19T13:51:48;13.70;99.90
21271;DHT22;10795;50.796;3.860;2023-11-19T13:54:15;13.70;99.90
21271;DHT22;10795;50.796;3.860;2023-11-19T14:07:57;13.30;99.90
21271;DHT22;10795;50.796;3.860;2023-11-19T14:10:23;13.20;99.90
21271;DHT22;10795;50.796;3.860;2023-11-19T14:12:49;13.20;99.90
21271;DHT22;10795;50.796;3.860;2023-11-19T14:15:17;13.20;99.90
21271;DHT22;10795;50.796;3.860;2023-11-19T14:17:43;13.20;99.90
21271;DHT22;10795;50.796;3.860;2023-11-19T14:20:09;13.20;99.90
21271;DHT22;10795;50.796;3.860;2023-11-19T14:22:41;13.30;99.90
21271;DHT22;10795;50.796;3.860;2023-11-19T14:25:11;13.30;99.90
21271;DHT22;10795;50.796;3.860;2023-11-19T14:27:40;13.30;99.90
21271;DHT22;10795;50.796;3.860;2023-11-19T14:30:06;13.30;99.90
21271;DHT22;10795;50.796;3.860;2023-11-19T14:32:33;13.40;99.90
21271;DHT22;10795;50.796;3.860;2023-11-19T14:34:59;13.30;99.90
21271;DHT22;10795;50.796;3.860;2023-11-19T14:37:24;13.20;99.90
21271;DHT22;10795;50.796;3.860;2023-11-19T14:39:50;13.10;99.90
21271;DHT22;10795;50.796;3.860;2023-11-19T14:42:16;13.00;99.90
21271;DHT22;10795;50.796;3.860;2023-11-19T14:44:43;13.00;99.90
21271;DHT22;10795;50.796;3.860;2023-11-19T14:47:08;13.00;99.90
21271;DHT22;10795;50.796;3.860;2023-11-19T14:49:34;13.10;99.90
21271;DHT22;10795;50.796;3.860;2023-11-19T14:52:00;13.00;99.90
21271;DHT22;10795;50.796;3.860;2023-11-19T14:54:26;12.80;99.90
21271;DHT22;10795;50.796;3.860;2023-11-19T14:56:52;12.90;99.90
21271;DHT22;10795;50.796;3.860;2023-11-19T14:59:20;12.80;99.90
21271;DHT22;10795;50.796;3.860;2023-11-19T15:01:46;13.00;99.90
21271;DHT22;10795;50.796;3.860;2023-11-19T15:04:12;13.00;99.90
21271;DHT22;10795;50.796;3.860;2023-11-19T15:06:37;13.00;99.90
21271;DHT22;10795;50.796;3.860;2023-11-19T15:09:05;13.10;99.90
21271;DHT22;10795;50.796;3.860;2023-11-19T15:11:33;13.00;99.90
21271;DHT22;10795;50.796;3.860;2023-11-19T15:19:25;13.10;99.90
21271;DHT22;10795;50.796;3.860;2023-11-19T15:21:51;13.10;99.90
21271;DHT22;10795;50.796;3.860;2023-11-19T15:24:19;13.10;99.90
21271;DHT22;10795;50.796;3.860;2023-11-19T15:26:49;13.00;99.90
21271;DHT22;10795;50.796;3.860;2023-11-19T15:29:15;12.70;99.90
21271;DHT22;10795;50.796;3.860;2023-11-19T15:31:43;12.50;99.90
21271;DHT22;10795;50.796;3.860;2023-11-19T15:34:09;12.40;99.90
21271;DHT22;10795;50.796;3.860;2023-11-19T15:36:36;12.40;99.90
21271;DHT22;10795;50.796;3.860;2023-11-19T15:39:02;12.30;99.90
21271;DHT22;10795;50.796;3.860;2023-11-19T15:41:33;12.20;99.90
21271;DHT22;10795;50.796;3.860;2023-11-19T15:58:05;12.20;99.90
21271;DHT22;10795;50.796;3.860;2023-11-19T16:12:47;12.00;99.90
21271;DHT22;10795;50.796;3.860;2023-11-19T16:15:13;11.80;99.90
21271;DHT22;10795;50.796;3.860;2023-11-19T16:17:41;11.70;99.90
21271;DHT22;10795;50.796;3.860;2023-11-19T16:20:07;11.60;99.90
21271;DHT22;10795;50.796;3.860;2023-11-19T16:22:36;11.50;99.90
21271;DHT22;10795;50.796;3.860;2023-11-19T16:25:03;11.60;99.90
21271;DHT22;10795;50.796;3.860;2023-11-19T16:27:28;11.50;99.90
21271;DHT22;10795;50.796;3.860;2023-11-19T16:29:54;11.50;99.90
21271;DHT22;10795;50.796;3.860;2023-11-19T16:32:19;11.50;99.90
21271;DHT22;10795;50.796;3.860;2023-11-19T16:34:45;11.40;99.90
21271;DHT22;10795;50.796;3.860;2023-11-19T16:37:14;11.40;99.90
21271;DHT22;10795;50.796;3.860;2023-11-19T16:39:41;11.40;99.90
21271;DHT22;10795;50.796;3.860;2023-11-19T16:42:09;11.40;99.90
21271;DHT22;10795;50.796;3.860;2023-11-19T16:44:37;11.40;99.90
21271;DHT22;10795;50.796;3.860;2023-11-19T16:47:03;11.50;99.90
21271;DHT22;10795;50.796;3.860;2023-11-19T16:49:31;11.50;99.90
21271;DHT22;10795;50.796;3.860;2023-11-19T16:51:57;11.50;99.90
21271;DHT22;10795;50.796;3.860;2023-11-19T16:56:59;11.60;99.90
21271;DHT22;10795;50.796;3.860;2023-11-19T16:59:24;11.60;99.90
21271;DHT22;10795;50.796;3.860;2023-11-19T17:01:50;11.60;99.90
21271;DHT22;10795;50.796;3.860;2023-11-19T17:04:20;11.60;99.90
21271;DHT22;10795;50.796;3.860;2023-11-19T17:06:48;11.60;99.90
21271;DHT22;10795;50.796;3.860;2023-11-19T17:09:14;11.60;99.90
21271;DHT22;10795;50.796;3.860;2023-11-19T17:11:40;11.70;99.90
21271;DHT22;10795;50.796;3.860;2023-11-19T17:14:09;11.80;99.90
21271;DHT22;10795;50.796;3.860;2023-11-19T17:16:37;11.70;99.90
21271;DHT22;10795;50.796;3.860;2023-11-19T17:19:04;11.70;99.90
21271;DHT22;10795;50.796;3.860;2023-11-19T17:21:34;11.70;99.90
21271;DHT22;10795;50.796;3.860;2023-11-19T17:24:00;11.60;99.90
21271;DHT22;10795;50.796;3.860;2023-11-19T17:26:28;11.70;99.90
21271;DHT22;10795;50.796;3.860;2023-11-19T17:28:54;11.70;99.90
21271;DHT22;10795;50.796;3.860;2023-11-19T17:31:20;11.70;99.90
21271;DHT22;10795;50.796;3.860;2023-11-19T17:33:46;11.70;99.90
21271;DHT22;10795;50.796;3.860;2023-11-19T17:36:12;11.70;99.90
21271;DHT22;10795;50.796;3.860;2023-11-19T17:38:37;11.70;99.90
21271;DHT22;10795;50.796;3.860;2023-11-19T17:41:03;11.80;99.90
21271;DHT22;10795;50.796;3.860;2023-11-19T17:43:29;11.70;99.90
21271;DHT22;10795;50.796;3.860;2023-11-19T17:45:55;11.70;99.90
21271;DHT22;10795;50.796;3.860;2023-11-19T17:48:25;11.80;99.90
21271;DHT22;10795;50.796;3.860;2023-11-19T17:50:51;11.80;99.90
21271;DHT22;10795;50.796;3.860;2023-11-19T17:53:20;11.80;99.90
21271;DHT22;10795;50.796;3.860;2023-11-19T17:55:46;11.80;99.90
21271;DHT22;10795;50.796;3.860;2023-11-19T17:58:12;11.80;99.90
21271;DHT22;10795;50.796;3.860;2023-11-19T18:00:37;11.80;99.90
21271;DHT22;10795;50.796;3.860;2023-11-19T18:03:05;11.80;99.90
21271;DHT22;10795;50.796;3.860;2023-11-19T18:05:33;11.80;99.90
21271;DHT22;10795;50.796;3.860;2023-11-19T18:08:03;11.70;99.90
21271;DHT22;10795;50.796;3.860;2023-11-19T18:10:30;11.70;99.90
21271;DHT22;10795;50.796;3.860;2023-11-19T18:12:58;11.80;99.90
21271;DHT22;10795;50.796;3.860;2023-11-19T18:15:26;11.70;99.90
21271;DHT22;10795;50.796;3.860;2023-11-19T18:17:52;11.70;99.90
21271;DHT22;10795;50.796;3.860;2023-11-19T18:20:20;11.70;99.90
21271;DHT22;10795;50.796;3.860;2023-11-19T18:22:48;11.60;99.90
21271;DHT22;10795;50.796;3.860;2023-11-19T18:25:14;11.60;99.90
21271;DHT22;10795;50.796;3.860;2023-11-19T18:27:48;11.70;99.90
21271;DHT22;10795;50.796;3.860;2023-11-19T18:30:14;11.70;99.90
21271;DHT22;10795;50.796;3.860;2023-11-19T18:32:40;11.70;99.90
21271;DHT22;10795;50.796;3.860;2023-11-19T18:35:12;11.70;99.90
21271;DHT22;10795;50.796;3.860;2023-11-19T18:37:38;11.70;99.90
21271;DHT22;10795;50.796;3.860;2023-11-19T18:40:04;11.70;99.90
21271;DHT22;10795;50.796;3.860;2023-11-19T18:42:31;11.70;99.90
21271;DHT22;10795;50.796;3.860;2023-11-19T18:44:59;11.70;99.90
21271;DHT22;10795;50.796;3.860;2023-11-19T18:47:24;11.60;99.90
21271;DHT22;10795;50.796;3.860;2023-11-19T18:49:52;11.60;99.90
21271;DHT22;10795;50.796;3.860;2023-11-19T18:52:21;11.60;99.90
21271;DHT22;10795;50.796;3.860;2023-11-19T18:54:49;11.60;99.90
21271;DHT22;10795;50.796;3.860;2023-11-19T18:57:21;11.60;99.90
21271;DHT22;10795;50.796;3.860;2023-11-19T18:59:47;11.60;99.90
21271;DHT22;10795;50.796;3.860;2023-11-19T19:02:15;11.60;99.90
21271;DHT22;10795;50.796;3.860;2023-11-19T19:04:43;11.60;99.90
21271;DHT22;10795;50.796;3.860;2023-11-19T19:07:10;11.50;99.90
21271;DHT22;10795;50.796;3.860;2023-11-19T19:09:38;11.50;99.90
21271;DHT22;10795;50.796;3.860;2023-11-19T19:12:06;11.50;99.90
21271;DHT22;10795;50.796;3.860;2023-11-19T19:14:32;11.50;99.90
21271;DHT22;10795;50.796;3.860;2023-11-19T19:17:00;11.40;99.90
21271;DHT22;10795;50.796;3.860;2023-11-19T19:19:26;11.40;99.90
21271;DHT22;10795;50.796;3.860;2023-11-19T19:21:55;11.40;99.90
21271;DHT22;10795;50.796;3.860;2023-11-19T19:24:21;11.40;99.90
21271;DHT22;10795;50.796;3.860;2023-11-19T19:26:46;11.40;99.90